sensor_id;sensor_type;location;lat;lon;timestamp;pressure;altitude;pressure_sealevel;temperature;humidity
7376;BME280;3728;42.266;24.944;2023-01-31T00:02:18;99107.88;;;2.35;91.68
7376;BME280;3728;42.266;24.944;2023-01-31T00:04:45;99109.41;;;2.21;92.80
7376;BME280;3728;42.266;24.944;2023-01-31T00:07:13;99105.53;;;2.18;93.43
7376;BME280;3728;42.266;24.944;2023-01-31T00:09:40;99101.91;;;2.24;93.51
7376;BME280;3728;42.266;24.944;2023-01-31T00:12:08;99099.88;;;2.36;93.09
7376;BME280;3728;42.266;24.944;2023-01-31T00:14:36;99105.81;;;2.37;93.25
7376;BME280;3728;42.266;24.944;2023-01-31T00:17:04;99105.31;;;2.40;93.29
7376;BME280;3728;42.266;24.944;2023-01-31T00:19:32;99105.84;;;2.47;91.63
7376;BME280;3728;42.266;24.944;2023-01-31T00:21:59;99092.16;;;2.61;88.88
7376;BME280;3728;42.266;24.944;2023-01-31T00:24:27;99091.66;;;2.74;85.75
7376;BME280;3728;42.266;24.944;2023-01-31T00:26:54;99092.66;;;2.78;85.64
7376;BME280;3728;42.266;24.944;2023-01-31T00:29:24;99086.47;;;2.64;85.40
7376;BME280;3728;42.266;24.944;2023-01-31T00:31:52;99086.94;;;2.36;86.65
7376;BME280;3728;42.266;24.944;2023-01-31T00:34:21;99093.69;;;2.32;87.30
7376;BME280;3728;42.266;24.944;2023-01-31T00:36:48;99083.34;;;2.37;87.50
7376;BME280;3728;42.266;24.944;2023-01-31T00:39:16;99074.28;;;2.30;88.04
7376;BME280;3728;42.266;24.944;2023-01-31T00:41:44;99087.75;;;2.42;88.82
7376;BME280;3728;42.266;24.944;2023-01-31T00:44:11;99078.19;;;2.52;88.34
7376;BME280;3728;42.266;24.944;2023-01-31T00:46:39;99075.59;;;2.57;88.77
7376;BME280;3728;42.266;24.944;2023-01-31T00:49:06;99082.06;;;2.65;88.75
7376;BME280;3728;42.266;24.944;2023-01-31T00:51:34;99096.56;;;2.66;88.33
7376;BME280;3728;42.266;24.944;2023-01-31T00:54:02;99089.56;;;2.56;88.54
7376;BME280;3728;42.266;24.944;2023-01-31T00:56:29;99086.22;;;2.61;89.21
7376;BME280;3728;42.266;24.944;2023-01-31T00:58:57;99090.84;;;2.64;89.06
7376;BME280;3728;42.266;24.944;2023-01-31T01:01:27;99082.31;;;2.73;89.11
7376;BME280;3728;42.266;24.944;2023-01-31T01:03:56;99082.59;;;2.72;88.98
7376;BME280;3728;42.266;24.944;2023-01-31T01:06:25;99081.53;;;2.88;87.52
7376;BME280;3728;42.266;24.944;2023-01-31T01:08:54;99078.44;;;2.81;87.26
7376;BME280;3728;42.266;24.944;2023-01-31T01:11:28;99076.38;;;2.88;86.84
7376;BME280;3728;42.266;24.944;2023-01-31T01:13:58;99065.00;;;2.84;86.86
7376;BME280;3728;42.266;24.944;2023-01-31T01:16:31;99060.34;;;3.01;85.03
7376;BME280;3728;42.266;24.944;2023-01-31T01:19:04;99082.59;;;2.72;85.01
7376;BME280;3728;42.266;24.944;2023-01-31T01:21:35;99068.91;;;2.61;86.23
7376;BME280;3728;42.266;24.944;2023-01-31T01:24:17;99079.47;;;2.50;86.65
7376;BME280;3728;42.266;24.944;2023-01-31T01:26:46;99074.78;;;2.27;86.34
7376;BME280;3728;42.266;24.944;2023-01-31T01:29:14;99063.69;;;2.31;86.92
7376;BME280;3728;42.266;24.944;2023-01-31T01:31:43;99062.41;;;2.39;87.52
7376;BME280;3728;42.266;24.944;2023-01-31T01:34:13;99061.38;;;2.30;87.41
7376;BME280;3728;42.266;24.944;2023-01-31T01:36:41;99049.00;;;2.47;86.92
7376;BME280;3728;42.266;24.944;2023-01-31T01:39:14;99056.72;;;2.97;84.89
7376;BME280;3728;42.266;24.944;2023-01-31T01:41:43;99057.28;;;2.59;85.52
7376;BME280;3728;42.266;24.944;2023-01-31T01:50:09;99069.16;;;2.70;86.77
7376;BME280;3728;42.266;24.944;2023-01-31T01:52:47;99069.66;;;2.72;88.36
7376;BME280;3728;42.266;24.944;2023-01-31T01:55:50;99054.16;;;2.72;87.79
7376;BME280;3728;42.266;24.944;2023-01-31T01:58:38;99060.34;;;2.86;86.48
7376;BME280;3728;42.266;24.944;2023-01-31T02:01:13;99043.81;;;2.57;88.59
7376;BME280;3728;42.266;24.944;2023-01-31T02:03:46;99061.94;;;2.52;88.88
7376;BME280;3728;42.266;24.944;2023-01-31T02:06:15;99051.56;;;2.62;89.07
7376;BME280;3728;42.266;24.944;2023-01-31T02:08:43;99058.28;;;2.98;87.86
7376;BME280;3728;42.266;24.944;2023-01-31T02:11:26;99042.47;;;3.05;87.53
7376;BME280;3728;42.266;24.944;2023-01-31T02:14:07;99050.22;;;3.20;86.58
7376;BME280;3728;42.266;24.944;2023-01-31T02:16:36;99043.78;;;2.97;86.60
7376;BME280;3728;42.266;24.944;2023-01-31T02:19:10;99042.53;;;2.90;87.39
7376;BME280;3728;42.266;24.944;2023-01-31T02:33:42;99029.44;;;3.35;84.75
7376;BME280;3728;42.266;24.944;2023-01-31T02:36:46;99022.97;;;3.37;84.06
7376;BME280;3728;42.266;24.944;2023-01-31T02:39:24;99032.63;;;3.86;81.77
7376;BME280;3728;42.266;24.944;2023-01-31T02:42:19;99030.56;;;3.78;82.03
7376;BME280;3728;42.266;24.944;2023-01-31T02:45:15;99027.50;;;3.71;81.11
7376;BME280;3728;42.266;24.944;2023-01-31T02:48:10;99034.69;;;3.84;80.39
7376;BME280;3728;42.266;24.944;2023-01-31T02:56:21;99033.78;;;4.03;79.01
7376;BME280;3728;42.266;24.944;2023-01-31T02:58:58;99025.13;;;3.79;79.57
7376;BME280;3728;42.266;24.944;2023-01-31T03:01:37;99039.00;;;3.44;81.38
7376;BME280;3728;42.266;24.944;2023-01-31T03:04:11;99028.66;;;3.34;82.31
7376;BME280;3728;42.266;24.944;2023-01-31T03:09:37;99015.81;;;3.14;84.72
7376;BME280;3728;42.266;24.944;2023-01-31T03:15:45;99024.56;;;3.28;85.54
7376;BME280;3728;42.266;24.944;2023-01-31T03:21:59;99020.91;;;3.39;87.02
7376;BME280;3728;42.266;24.944;2023-01-31T03:24:29;99010.31;;;3.36;87.05
7376;BME280;3728;42.266;24.944;2023-01-31T03:26:59;99017.50;;;3.44;86.92
7376;BME280;3728;42.266;24.944;2023-01-31T03:29:33;99016.22;;;3.46;86.31
7376;BME280;3728;42.266;24.944;2023-01-31T03:32:17;99016.75;;;3.43;86.08
7376;BME280;3728;42.266;24.944;2023-01-31T03:34:50;99026.88;;;3.35;86.00
7376;BME280;3728;42.266;24.944;2023-01-31T03:37:20;99027.16;;;3.23;85.80
7376;BME280;3728;42.266;24.944;2023-01-31T03:40:12;99019.41;;;3.23;85.87
7376;BME280;3728;42.266;24.944;2023-01-31T03:42:55;99019.56;;;3.52;83.22
7376;BME280;3728;42.266;24.944;2023-01-31T03:48:06;99019.25;;;3.64;80.40
7376;BME280;3728;42.266;24.944;2023-01-31T03:50:47;99016.13;;;3.67;79.77
7376;BME280;3728;42.266;24.944;2023-01-31T03:53:23;99020.50;;;3.71;78.84
7376;BME280;3728;42.266;24.944;2023-01-31T03:56:36;99011.13;;;3.80;77.54
7376;BME280;3728;42.266;24.944;2023-01-31T03:59:14;99014.94;;;3.98;77.17
7376;BME280;3728;42.266;24.944;2023-01-31T04:01:48;99022.09;;;3.67;77.58
7376;BME280;3728;42.266;24.944;2023-01-31T04:04:25;99019.19;;;3.79;77.36
7376;BME280;3728;42.266;24.944;2023-01-31T04:06:55;99018.69;;;3.72;77.75
7376;BME280;3728;42.266;24.944;2023-01-31T04:09:23;99012.31;;;3.54;77.21
7376;BME280;3728;42.266;24.944;2023-01-31T04:11:51;99020.69;;;3.85;75.60
7376;BME280;3728;42.266;24.944;2023-01-31T04:14:19;99028.38;;;4.00;71.27
7376;BME280;3728;42.266;24.944;2023-01-31T04:16:46;99034.78;;;4.07;68.71
7376;BME280;3728;42.266;24.944;2023-01-31T04:19:14;99039.09;;;4.27;66.46
7376;BME280;3728;42.266;24.944;2023-01-31T04:21:41;99045.38;;;4.16;66.67
7376;BME280;3728;42.266;24.944;2023-01-31T04:24:09;99046.38;;;4.20;67.19
7376;BME280;3728;42.266;24.944;2023-01-31T04:26:37;99048.47;;;4.18;65.92
7376;BME280;3728;42.266;24.944;2023-01-31T04:29:04;99051.75;;;4.29;66.10
7376;BME280;3728;42.266;24.944;2023-01-31T04:31:32;99047.72;;;4.12;66.84
7376;BME280;3728;42.266;24.944;2023-01-31T04:34:00;99047.25;;;4.05;68.47
7376;BME280;3728;42.266;24.944;2023-01-31T04:36:27;99054.63;;;3.83;69.85
7376;BME280;3728;42.266;24.944;2023-01-31T04:38:55;99060.88;;;3.72;71.69
7376;BME280;3728;42.266;24.944;2023-01-31T04:41:22;99065.53;;;3.80;71.66
7376;BME280;3728;42.266;24.944;2023-01-31T04:43:50;99060.63;;;3.79;72.00
7376;BME280;3728;42.266;24.944;2023-01-31T04:46:18;99068.06;;;3.95;70.87
7376;BME280;3728;42.266;24.944;2023-01-31T04:48:46;99076.88;;;3.89;71.89
7376;BME280;3728;42.266;24.944;2023-01-31T04:51:13;99069.06;;;3.94;70.79
7376;BME280;3728;42.266;24.944;2023-01-31T04:53:43;99072.97;;;3.92;71.65
7376;BME280;3728;42.266;24.944;2023-01-31T04:56:10;99071.78;;;3.74;72.32
7376;BME280;3728;42.266;24.944;2023-01-31T04:58:38;99068.16;;;3.65;72.65
7376;BME280;3728;42.266;24.944;2023-01-31T05:01:07;99072.44;;;4.00;71.27
7376;BME280;3728;42.266;24.944;2023-01-31T05:03:34;99080.34;;;3.65;73.44
7376;BME280;3728;42.266;24.944;2023-01-31T05:06:02;99089.81;;;3.94;71.80
7376;BME280;3728;42.266;24.944;2023-01-31T05:08:30;99078.50;;;3.70;72.93
7376;BME280;3728;42.266;24.944;2023-01-31T05:11:04;99075.69;;;3.67;72.95
7376;BME280;3728;42.266;24.944;2023-01-31T05:13:33;99073.00;;;3.87;71.49
7376;BME280;3728;42.266;24.944;2023-01-31T05:16:09;99070.41;;;3.82;71.74
7376;BME280;3728;42.266;24.944;2023-01-31T05:18:38;99073.59;;;3.74;72.78
7376;BME280;3728;42.266;24.944;2023-01-31T05:21:06;99068.66;;;3.72;72.85
7376;BME280;3728;42.266;24.944;2023-01-31T05:23:34;99058.03;;;3.74;72.77
7376;BME280;3728;42.266;24.944;2023-01-31T05:26:02;99062.75;;;3.67;72.75
7376;BME280;3728;42.266;24.944;2023-01-31T05:28:30;99054.13;;;3.81;72.09
7376;BME280;3728;42.266;24.944;2023-01-31T05:31:03;99064.28;;;3.68;71.63
7376;BME280;3728;42.266;24.944;2023-01-31T05:33:33;99069.41;;;3.78;71.81
7376;BME280;3728;42.266;24.944;2023-01-31T05:36:02;99068.88;;;3.81;71.27
7376;BME280;3728;42.266;24.944;2023-01-31T05:38:29;99069.72;;;3.71;72.54
7376;BME280;3728;42.266;24.944;2023-01-31T05:40:57;99076.97;;;3.64;73.72
7376;BME280;3728;42.266;24.944;2023-01-31T05:43:25;99083.50;;;3.46;73.96
7376;BME280;3728;42.266;24.944;2023-01-31T05:45:52;99083.78;;;3.35;73.81
7376;BME280;3728;42.266;24.944;2023-01-31T05:48:20;99091.53;;;3.45;74.57
7376;BME280;3728;42.266;24.944;2023-01-31T05:50:48;99102.19;;;3.38;74.32
7376;BME280;3728;42.266;24.944;2023-01-31T05:53:16;99099.28;;;3.50;74.17
7376;BME280;3728;42.266;24.944;2023-01-31T05:55:44;99100.63;;;3.37;75.41
7376;BME280;3728;42.266;24.944;2023-01-31T05:58:13;99091.84;;;3.33;75.75
7376;BME280;3728;42.266;24.944;2023-01-31T06:00:40;99093.13;;;3.41;75.42
7376;BME280;3728;42.266;24.944;2023-01-31T06:03:08;99098.00;;;3.53;74.62
7376;BME280;3728;42.266;24.944;2023-01-31T06:05:36;99096.44;;;3.46;74.95
7376;BME280;3728;42.266;24.944;2023-01-31T06:08:06;99105.75;;;3.58;74.78
7376;BME280;3728;42.266;24.944;2023-01-31T06:10:33;99102.88;;;3.64;75.06
7376;BME280;3728;42.266;24.944;2023-01-31T06:13:01;99107.28;;;3.54;74.33
7376;BME280;3728;42.266;24.944;2023-01-31T06:15:28;99105.50;;;3.54;74.36
7376;BME280;3728;42.266;24.944;2023-01-31T06:17:56;99116.09;;;3.63;73.88
7376;BME280;3728;42.266;24.944;2023-01-31T06:20:25;99119.72;;;3.62;74.75
7376;BME280;3728;42.266;24.944;2023-01-31T06:22:53;99123.31;;;3.66;73.40
7376;BME280;3728;42.266;24.944;2023-01-31T06:25:20;99118.13;;;3.66;73.78
7376;BME280;3728;42.266;24.944;2023-01-31T06:27:48;99123.00;;;3.77;71.92
7376;BME280;3728;42.266;24.944;2023-01-31T06:30:16;99119.09;;;3.85;73.68
7376;BME280;3728;42.266;24.944;2023-01-31T06:32:44;99116.53;;;3.75;73.63
7376;BME280;3728;42.266;24.944;2023-01-31T06:35:11;99124.50;;;3.93;72.68
7376;BME280;3728;42.266;24.944;2023-01-31T06:37:39;99126.56;;;3.96;72.75
7376;BME280;3728;42.266;24.944;2023-01-31T06:40:10;99126.06;;;3.94;74.29
7376;BME280;3728;42.266;24.944;2023-01-31T06:42:37;99138.19;;;4.04;72.59
7376;BME280;3728;42.266;24.944;2023-01-31T06:45:05;99123.16;;;4.06;72.63
7376;BME280;3728;42.266;24.944;2023-01-31T06:47:33;99129.09;;;4.11;72.62
7376;BME280;3728;42.266;24.944;2023-01-31T06:50:01;99117.13;;;4.21;72.87
7376;BME280;3728;42.266;24.944;2023-01-31T06:52:29;99126.38;;;4.37;71.83
7376;BME280;3728;42.266;24.944;2023-01-31T06:54:57;99132.53;;;4.46;71.53
7376;BME280;3728;42.266;24.944;2023-01-31T06:57:24;99141.34;;;4.50;71.37
7376;BME280;3728;42.266;24.944;2023-01-31T06:59:52;99159.34;;;4.70;71.33
7376;BME280;3728;42.266;24.944;2023-01-31T07:02:19;99154.09;;;4.80;70.66
7376;BME280;3728;42.266;24.944;2023-01-31T07:04:47;99149.38;;;4.87;70.04
7376;BME280;3728;42.266;24.944;2023-01-31T07:07:15;99158.84;;;5.02;69.41
7376;BME280;3728;42.266;24.944;2023-01-31T07:09:42;99165.06;;;5.06;69.41
7376;BME280;3728;42.266;24.944;2023-01-31T07:12:10;99164.69;;;5.17;68.83
7376;BME280;3728;42.266;24.944;2023-01-31T07:14:38;99163.84;;;4.93;70.29
7376;BME280;3728;42.266;24.944;2023-01-31T07:17:06;99182.63;;;5.14;69.68
7376;BME280;3728;42.266;24.944;2023-01-31T07:19:34;99159.16;;;4.95;69.92
7376;BME280;3728;42.266;24.944;2023-01-31T07:22:02;99171.50;;;5.13;68.99
7376;BME280;3728;42.266;24.944;2023-01-31T07:24:30;99178.38;;;4.94;69.77
7376;BME280;3728;42.266;24.944;2023-01-31T07:26:58;99191.50;;;5.08;69.62
7376;BME280;3728;42.266;24.944;2023-01-31T07:29:26;99182.50;;;4.95;69.63
7376;BME280;3728;42.266;24.944;2023-01-31T07:31:54;99180.88;;;5.04;69.65
7376;BME280;3728;42.266;24.944;2023-01-31T07:34:22;99197.00;;;5.01;70.73
7376;BME280;3728;42.266;24.944;2023-01-31T07:36:50;99198.22;;;4.75;73.25
7376;BME280;3728;42.266;24.944;2023-01-31T07:39:18;99200.63;;;5.00;69.90
7376;BME280;3728;42.266;24.944;2023-01-31T07:41:45;99206.09;;;5.04;70.86
7376;BME280;3728;42.266;24.944;2023-01-31T07:44:14;99203.94;;;5.11;70.68
7376;BME280;3728;42.266;24.944;2023-01-31T08:21:44;99216.31;;;4.36;74.65
7376;BME280;3728;42.266;24.944;2023-01-31T08:24:12;99213.03;;;4.69;73.27
7376;BME280;3728;42.266;24.944;2023-01-31T08:26:41;99228.22;;;4.91;72.49
7376;BME280;3728;42.266;24.944;2023-01-31T08:29:09;99220.56;;;5.10;72.08
7376;BME280;3728;42.266;24.944;2023-01-31T08:31:39;99218.47;;;5.12;71.18
7376;BME280;3728;42.266;24.944;2023-01-31T08:34:08;99228.06;;;5.45;69.38
7376;BME280;3728;42.266;24.944;2023-01-31T08:36:35;99221.34;;;5.44;69.48
7376;BME280;3728;42.266;24.944;2023-01-31T08:39:04;99224.53;;;5.65;68.86
7376;BME280;3728;42.266;24.944;2023-01-31T08:41:34;99227.13;;;5.65;67.60
7376;BME280;3728;42.266;24.944;2023-01-31T08:44:06;99231.25;;;5.66;67.44
7376;BME280;3728;42.266;24.944;2023-01-31T08:46:35;99232.84;;;5.62;69.50
7376;BME280;3728;42.266;24.944;2023-01-31T08:49:04;99236.31;;;5.81;68.14
7376;BME280;3728;42.266;24.944;2023-01-31T08:51:36;99243.38;;;5.75;67.68
7376;BME280;3728;42.266;24.944;2023-01-31T08:54:04;99240.13;;;5.93;67.39
7376;BME280;3728;42.266;24.944;2023-01-31T08:56:31;99250.25;;;6.18;66.61
7376;BME280;3728;42.266;24.944;2023-01-31T08:58:59;99247.50;;;6.10;66.44
7376;BME280;3728;42.266;24.944;2023-01-31T09:01:26;99251.50;;;5.97;66.85
7376;BME280;3728;42.266;24.944;2023-01-31T09:03:54;99262.22;;;5.91;67.92
7376;BME280;3728;42.266;24.944;2023-01-31T09:06:25;99248.72;;;6.12;67.01
7376;BME280;3728;42.266;24.944;2023-01-31T09:08:57;99238.28;;;6.17;67.73
7376;BME280;3728;42.266;24.944;2023-01-31T09:11:28;99238.59;;;6.35;66.44
7376;BME280;3728;42.266;24.944;2023-01-31T09:13:57;99250.97;;;6.00;68.24
7376;BME280;3728;42.266;24.944;2023-01-31T09:16:24;99261.44;;;6.19;66.50
7376;BME280;3728;42.266;24.944;2023-01-31T09:18:52;99263.88;;;6.29;66.28
7376;BME280;3728;42.266;24.944;2023-01-31T09:21:22;99257.28;;;6.60;67.28
7376;BME280;3728;42.266;24.944;2023-01-31T09:23:55;99251.19;;;6.88;64.21
7376;BME280;3728;42.266;24.944;2023-01-31T09:26:24;99257.78;;;7.00;63.09
7376;BME280;3728;42.266;24.944;2023-01-31T09:28:52;99257.38;;;7.11;62.41
7376;BME280;3728;42.266;24.944;2023-01-31T09:31:20;99250.75;;;7.00;64.46
7376;BME280;3728;42.266;24.944;2023-01-31T09:33:48;99248.56;;;7.07;63.96
7376;BME280;3728;42.266;24.944;2023-01-31T09:36:18;99240.66;;;7.31;61.89
7376;BME280;3728;42.266;24.944;2023-01-31T09:38:47;99243.75;;;7.65;60.76
7376;BME280;3728;42.266;24.944;2023-01-31T09:41:28;99254.59;;;7.86;60.03
7376;BME280;3728;42.266;24.944;2023-01-31T09:44:06;99239.91;;;7.90;59.32
7376;BME280;3728;42.266;24.944;2023-01-31T09:46:58;99242.66;;;7.98;58.82
7376;BME280;3728;42.266;24.944;2023-01-31T09:49:41;99231.81;;;8.18;59.99
7376;BME280;3728;42.266;24.944;2023-01-31T09:52:15;99229.53;;;8.31;59.24
7376;BME280;3728;42.266;24.944;2023-01-31T09:54:43;99227.09;;;8.34;58.42
7376;BME280;3728;42.266;24.944;2023-01-31T10:00:06;99223.44;;;8.35;58.17
7376;BME280;3728;42.266;24.944;2023-01-31T10:03:17;99224.56;;;8.56;56.93
7376;BME280;3728;42.266;24.944;2023-01-31T10:06:29;99219.25;;;8.61;56.34
7376;BME280;3728;42.266;24.944;2023-01-31T10:09:11;99210.47;;;8.79;56.35
7376;BME280;3728;42.266;24.944;2023-01-31T10:12:06;99205.50;;;8.91;54.54
7376;BME280;3728;42.266;24.944;2023-01-31T10:14:46;99200.81;;;9.02;51.48
7376;BME280;3728;42.266;24.944;2023-01-31T10:17:24;99195.66;;;9.11;52.04
7376;BME280;3728;42.266;24.944;2023-01-31T10:20:15;99191.25;;;9.20;50.78
7376;BME280;3728;42.266;24.944;2023-01-31T10:23:02;99197.50;;;9.32;50.92
7376;BME280;3728;42.266;24.944;2023-01-31T10:25:47;99188.53;;;9.55;51.37
7376;BME280;3728;42.266;24.944;2023-01-31T10:28:46;99187.91;;;9.50;50.48
7376;BME280;3728;42.266;24.944;2023-01-31T10:39:42;99181.31;;;9.52;49.63
7376;BME280;3728;42.266;24.944;2023-01-31T10:44:54;99184.63;;;9.75;48.38
7376;BME280;3728;42.266;24.944;2023-01-31T10:47:33;99179.81;;;9.69;47.94
7376;BME280;3728;42.266;24.944;2023-01-31T10:50:14;99183.53;;;9.37;49.59
7376;BME280;3728;42.266;24.944;2023-01-31T10:58:35;99171.88;;;9.43;50.13
7376;BME280;3728;42.266;24.944;2023-01-31T11:01:06;99184.03;;;9.47;49.87
7376;BME280;3728;42.266;24.944;2023-01-31T11:03:37;99168.97;;;9.14;51.59
7376;BME280;3728;42.266;24.944;2023-01-31T11:06:09;99162.69;;;8.92;51.64
7376;BME280;3728;42.266;24.944;2023-01-31T11:08:46;99175.16;;;9.26;51.59
7376;BME280;3728;42.266;24.944;2023-01-31T11:11:27;99170.25;;;9.55;50.69
7376;BME280;3728;42.266;24.944;2023-01-31T11:14:04;99168.19;;;9.83;49.36
7376;BME280;3728;42.266;24.944;2023-01-31T11:16:35;99168.53;;;9.51;50.01
7376;BME280;3728;42.266;24.944;2023-01-31T11:24:51;99163.06;;;8.86;53.57
7376;BME280;3728;42.266;24.944;2023-01-31T11:30:21;99165.88;;;8.89;52.23
7376;BME280;3728;42.266;24.944;2023-01-31T11:32:57;99167.47;;;8.77;50.56
7376;BME280;3728;42.266;24.944;2023-01-31T11:35:30;99171.22;;;9.07;49.95
7376;BME280;3728;42.266;24.944;2023-01-31T11:40:38;99176.34;;;10.29;47.34
7376;BME280;3728;42.266;24.944;2023-01-31T11:45:45;99158.97;;;11.02;46.31
7376;BME280;3728;42.266;24.944;2023-01-31T11:48:30;99164.00;;;11.07;43.82
7376;BME280;3728;42.266;24.944;2023-01-31T11:51:04;99161.78;;;11.43;44.51
7376;BME280;3728;42.266;24.944;2023-01-31T11:53:45;99161.41;;;12.29;41.08
7376;BME280;3728;42.266;24.944;2023-01-31T11:56:19;99160.75;;;12.73;40.92
7376;BME280;3728;42.266;24.944;2023-01-31T11:58:55;99158.03;;;12.82;40.43
7376;BME280;3728;42.266;24.944;2023-01-31T12:01:25;99163.69;;;12.72;41.17
7376;BME280;3728;42.266;24.944;2023-01-31T12:04:00;99161.31;;;12.17;40.51
7376;BME280;3728;42.266;24.944;2023-01-31T12:06:38;99147.09;;;12.18;40.86
7376;BME280;3728;42.266;24.944;2023-01-31T12:09:21;99152.41;;;11.80;41.38
7376;BME280;3728;42.266;24.944;2023-01-31T12:11:59;99153.06;;;11.05;43.37
7376;BME280;3728;42.266;24.944;2023-01-31T12:14:41;99156.19;;;10.47;44.48
7376;BME280;3728;42.266;24.944;2023-01-31T12:17:14;99156.97;;;10.48;45.00
7376;BME280;3728;42.266;24.944;2023-01-31T12:41:39;99166.81;;;9.77;48.11
7376;BME280;3728;42.266;24.944;2023-01-31T12:44:47;99168.53;;;9.90;46.22
7376;BME280;3728;42.266;24.944;2023-01-31T12:56:11;99176.69;;;10.54;45.53
7376;BME280;3728;42.266;24.944;2023-01-31T13:01:57;99180.41;;;10.78;45.83
7376;BME280;3728;42.266;24.944;2023-01-31T13:04:51;99183.88;;;11.25;44.49
7376;BME280;3728;42.266;24.944;2023-01-31T13:07:34;99183.81;;;11.97;42.53
7376;BME280;3728;42.266;24.944;2023-01-31T13:10:17;99189.59;;;12.11;41.83
7376;BME280;3728;42.266;24.944;2023-01-31T13:12:56;99196.31;;;11.54;41.52
7376;BME280;3728;42.266;24.944;2023-01-31T13:15:54;99196.41;;;10.60;43.86
7376;BME280;3728;42.266;24.944;2023-01-31T13:18:32;99190.56;;;9.98;46.79
7376;BME280;3728;42.266;24.944;2023-01-31T13:21:04;99195.94;;;10.01;46.19
7376;BME280;3728;42.266;24.944;2023-01-31T13:23:42;99198.66;;;10.27;47.14
7376;BME280;3728;42.266;24.944;2023-01-31T13:26:18;99197.78;;;10.49;46.12
7376;BME280;3728;42.266;24.944;2023-01-31T13:31:46;99197.78;;;10.66;45.70
7376;BME280;3728;42.266;24.944;2023-01-31T13:34:47;99201.41;;;11.50;44.52
7376;BME280;3728;42.266;24.944;2023-01-31T13:37:21;99198.56;;;11.81;42.69
7376;BME280;3728;42.266;24.944;2023-01-31T13:40:02;99201.56;;;11.54;43.40
7376;BME280;3728;42.266;24.944;2023-01-31T13:42:42;99207.41;;;11.68;44.01
7376;BME280;3728;42.266;24.944;2023-01-31T13:45:26;99205.53;;;11.68;44.75
7376;BME280;3728;42.266;24.944;2023-01-31T13:48:07;99209.94;;;11.94;44.63
7376;BME280;3728;42.266;24.944;2023-01-31T13:50:54;99207.03;;;12.16;43.52
7376;BME280;3728;42.266;24.944;2023-01-31T13:53:51;99210.38;;;11.41;44.50
7376;BME280;3728;42.266;24.944;2023-01-31T13:56:31;99215.69;;;10.81;47.31
7376;BME280;3728;42.266;24.944;2023-01-31T13:59:01;99211.00;;;10.44;48.62
7376;BME280;3728;42.266;24.944;2023-01-31T14:01:34;99215.03;;;10.58;47.18
7376;BME280;3728;42.266;24.944;2023-01-31T14:10:24;99218.75;;;10.09;50.75
7376;BME280;3728;42.266;24.944;2023-01-31T14:12:37;99214.13;;;9.67;55.00
7376;BME280;3728;42.266;24.944;2023-01-31T14:15:45;99214.38;;;9.57;56.24
7376;BME280;3728;42.266;24.944;2023-01-31T14:18:34;99220.84;;;9.99;56.66
7376;BME280;3728;42.266;24.944;2023-01-31T14:23:59;99227.44;;;11.73;51.30
7376;BME280;3728;42.266;24.944;2023-01-31T14:29:18;99226.75;;;11.12;51.64
7376;BME280;3728;42.266;24.944;2023-01-31T14:31:49;99225.13;;;11.62;48.83
7376;BME280;3728;42.266;24.944;2023-01-31T14:34:28;99228.13;;;12.28;47.16
7376;BME280;3728;42.266;24.944;2023-01-31T14:37:12;99238.34;;;13.45;44.70
7376;BME280;3728;42.266;24.944;2023-01-31T14:57:55;99271.16;;;14.04;44.65
7376;BME280;3728;42.266;24.944;2023-01-31T15:03:24;99283.88;;;13.04;46.97
7376;BME280;3728;42.266;24.944;2023-01-31T15:14:27;99295.09;;;10.42;55.14
7376;BME280;3728;42.266;24.944;2023-01-31T15:17:04;99286.88;;;9.96;56.19
7376;BME280;3728;42.266;24.944;2023-01-31T15:20:16;99289.28;;;9.61;56.26
7376;BME280;3728;42.266;24.944;2023-01-31T15:22:46;99290.84;;;9.18;56.87
7376;BME280;3728;42.266;24.944;2023-01-31T15:25:45;99300.31;;;9.28;57.62
7376;BME280;3728;42.266;24.944;2023-01-31T15:28:14;99306.41;;;8.74;58.31
7376;BME280;3728;42.266;24.944;2023-01-31T15:30:49;99308.38;;;8.68;58.72
7376;BME280;3728;42.266;24.944;2023-01-31T15:33:34;99311.75;;;8.55;59.01
7376;BME280;3728;42.266;24.944;2023-01-31T15:36:37;99322.56;;;8.35;61.50
7376;BME280;3728;42.266;24.944;2023-01-31T15:39:21;99324.63;;;8.06;62.92
7376;BME280;3728;42.266;24.944;2023-01-31T15:42:30;99328.59;;;8.03;62.96
7376;BME280;3728;42.266;24.944;2023-01-31T15:45:32;99330.31;;;7.94;63.41
7376;BME280;3728;42.266;24.944;2023-01-31T15:48:06;99332.81;;;7.86;64.55
7376;BME280;3728;42.266;24.944;2023-01-31T15:50:57;99341.06;;;7.74;66.18
7376;BME280;3728;42.266;24.944;2023-01-31T15:53:27;99349.38;;;7.76;64.96
7376;BME280;3728;42.266;24.944;2023-01-31T15:56:00;99345.50;;;7.74;66.03
7376;BME280;3728;42.266;24.944;2023-01-31T15:58:30;99361.88;;;7.61;66.58
7376;BME280;3728;42.266;24.944;2023-01-31T16:01:00;99365.66;;;7.49;67.27
7376;BME280;3728;42.266;24.944;2023-01-31T16:03:38;99371.97;;;7.48;66.36
7376;BME280;3728;42.266;24.944;2023-01-31T16:06:30;99375.47;;;7.39;67.37
7376;BME280;3728;42.266;24.944;2023-01-31T16:09:04;99371.47;;;7.46;68.56
7376;BME280;3728;42.266;24.944;2023-01-31T16:11:47;99375.59;;;7.47;67.34
7376;BME280;3728;42.266;24.944;2023-01-31T16:14:18;99379.53;;;7.64;65.09
7376;BME280;3728;42.266;24.944;2023-01-31T16:16:54;99389.25;;;7.77;65.09
7376;BME280;3728;42.266;24.944;2023-01-31T16:19:30;99393.22;;;7.74;65.92
7376;BME280;3728;42.266;24.944;2023-01-31T16:22:01;99407.28;;;7.36;68.42
7376;BME280;3728;42.266;24.944;2023-01-31T16:24:29;99400.47;;;6.98;69.89
7376;BME280;3728;42.266;24.944;2023-01-31T16:27:00;99399.72;;;6.97;69.60
7376;BME280;3728;42.266;24.944;2023-01-31T16:29:42;99401.59;;;6.68;71.52
7376;BME280;3728;42.266;24.944;2023-01-31T16:35:24;99413.72;;;6.54;74.29
7376;BME280;3728;42.266;24.944;2023-01-31T16:38:02;99411.31;;;6.57;72.10
7376;BME280;3728;42.266;24.944;2023-01-31T16:40:50;99410.78;;;6.60;70.94
7376;BME280;3728;42.266;24.944;2023-01-31T16:43:26;99409.44;;;6.63;71.44
7376;BME280;3728;42.266;24.944;2023-01-31T16:46:20;99425.16;;;6.53;72.54
7376;BME280;3728;42.266;24.944;2023-01-31T16:49:05;99425.47;;;6.46;72.87
7376;BME280;3728;42.266;24.944;2023-01-31T16:52:07;99417.09;;;6.54;72.50
7376;BME280;3728;42.266;24.944;2023-01-31T16:54:54;99423.56;;;6.28;73.95
7376;BME280;3728;42.266;24.944;2023-01-31T17:02:59;99433.38;;;6.88;71.92
7376;BME280;3728;42.266;24.944;2023-01-31T17:05:47;99439.91;;;6.86;72.33
7376;BME280;3728;42.266;24.944;2023-01-31T17:08:17;99427.53;;;6.78;71.64
7376;BME280;3728;42.266;24.944;2023-01-31T17:10:47;99432.72;;;6.78;71.70